METAR FOR KSAR :KSAR 200635Z AUTO 00000KT 10SM CLR 21/21 A2985 RMK AO2 T02110205

Sparta Community Airport (KSAR)

                                                                                                                                                                                                 

"Hunter Field," named after the legendary Hunter brothers, is located in the southwestern corner of the state, on the north side of Sparta, Illinois.  Services available include 24/7 fueling, courtesy cars, a recently updated terminal building with lounges, satellite TV, and free Wifi access, as well as a full service FBO. Sparta Aero Services Inc.,   Business hours are Monday through Saturday 8:00 am to 5:00 pm.  For assistance outside of these hours please call ahead.

 As of May 2, 2013, the listing in the Airport Facilities Directory (A/FD) can be found here.

 

Location

FAA Identifier:  SAR
Lat/Long:  38-08-56.2000N / 089-41-55.6000W
38-08.936667N / 089-41.926667W
38.1489444 / -89.6987778
(estimated)
Elevation:  538 ft. / 164.0 m (surveyed)
Variation:  01E (1990)
From city:  2 miles N of SPARTA, IL
Time zone:  UTC -5 (UTC -6 during Standard Time)
Zip code:  62286

 

 

 

 

 

 

 

 

Airport Ownership and Management 

Ownership:  Publicly-owned
Owner: 

SPARTA COMMUNITY AIRPORT AUTHORITY
1800 N. MARKET
SPARTA, IL 62286
Phone: (618) 443-2002

 

Manager: 

SCOTT MARQUARDT
1800 N. MARKET
SPARTA, IL 62286
Phone: (618) 443-5321
Fax: (618) 443-3968